Time;durP1;ratioP1;P1;durP2;ratioP2;P2;SDS_P1;SDS_P2;PMS_P1;PMS_P2;Temp;Humidity;BMP_temperature;BMP_pressure;BME280_temperature;BME280_humidity;BME280_pressure;Samples;Min_cycle;Max_cycle;Signal;HPM_P1;HPM_P2
2022/03/04 00:01:23;;;;;;;23.47;10.43;;;;;;;-2.97;93.35;99136.31;5145387;27;20545;-79
2022/03/04 00:03:51;;;;;;;20.63;10.17;;;;;;;-2.87;93.03;99151.56;5130024;27;20054;-79
2022/03/04 00:06:18;;;;;;;17.03;9.33;;;;;;;-3.02;92.65;99123.31;5140212;27;20045;-79
2022/03/04 00:08:44;;;;;;;21.27;9.00;;;;;;;-2.80;92.73;99153.81;5125594;27;20043;-79
2022/03/04 00:11:11;;;;;;;21.07;10.43;;;;;;;-2.91;93.74;99146.53;5144021;27;20378;-79
2022/03/04 00:13:38;;;;;;;22.23;9.73;;;;;;;-2.89;94.29;99164.13;5136421;27;20047;-79
2022/03/04 00:16:05;;;;;;;23.37;10.93;;;;;;;-2.89;94.13;99149.94;5133329;27;20137;-79
2022/03/04 00:18:31;;;;;;;23.50;10.77;;;;;;;-2.83;94.82;99156.69;5142807;27;20047;-79
2022/03/04 00:20:59;;;;;;;25.70;11.43;;;;;;;-2.92;95.21;99140.38;5133510;27;20043;-79
2022/03/04 00:23:26;;;;;;;18.03;9.87;;;;;;;-2.94;95.32;99144.09;5130985;27;20421;-79
2022/03/04 00:25:52;;;;;;;27.33;10.73;;;;;;;-2.91;95.05;99152.72;5126768;27;20062;-79
2022/03/04 00:28:19;;;;;;;21.60;10.70;;;;;;;-2.92;94.20;99167.00;5143674;27;20054;-79
2022/03/04 00:30:45;;;;;;;24.43;11.10;;;;;;;-3.09;94.78;99144.13;5133017;27;20059;-79
2022/03/04 00:33:12;;;;;;;21.63;10.47;;;;;;;-3.03;93.17;99158.84;5144443;27;20417;-79
2022/03/04 00:35:39;;;;;;;21.33;9.10;;;;;;;-3.12;93.78;99170.06;5131238;27;20039;-79
2022/03/04 00:38:07;;;;;;;22.17;10.30;;;;;;;-3.13;95.31;99179.88;5133258;27;20084;-79
2022/03/04 00:40:34;;;;;;;20.67;9.33;;;;;;;-3.21;95.23;99180.34;5135934;27;20050;-79
2022/03/04 00:43:00;;;;;;;22.47;10.70;;;;;;;-3.41;95.95;99162.97;5143608;27;20058;-79
2022/03/04 00:45:27;;;;;;;19.20;10.80;;;;;;;-3.27;95.40;99158.59;5142256;27;20050;-79
2022/03/04 00:47:53;;;;;;;22.73;10.47;;;;;;;-3.19;94.85;99172.28;5140861;27;20046;-79
2022/03/04 00:50:20;;;;;;;19.40;9.73;;;;;;;-3.19;94.92;99185.56;5132826;27;20055;-79
2022/03/04 00:52:46;;;;;;;23.63;9.97;;;;;;;-3.35;95.42;99182.16;5131536;27;20146;-80
2022/03/04 00:55:14;;;;;;;21.10;10.83;;;;;;;-3.34;94.30;99179.41;5140353;27;20057;-79
2022/03/04 00:57:41;;;;;;;19.43;9.97;;;;;;;-3.39;94.74;99181.50;5131590;27;20071;-79
2022/03/04 01:00:09;;;;;;;23.37;10.33;;;;;;;-3.37;95.15;99168.97;5126391;27;20047;-79
2022/03/04 01:02:35;;;;;;;26.27;10.63;;;;;;;-3.30;95.59;99188.88;5138488;27;20527;-79
2022/03/04 01:05:02;;;;;;;23.13;10.30;;;;;;;-3.30;95.54;99180.06;5129055;27;20050;-79
2022/03/04 01:07:28;;;;;;;21.93;10.23;;;;;;;-3.43;95.41;99172.88;5140127;27;20480;-79
2022/03/04 01:09:55;;;;;;;20.73;11.27;;;;;;;-3.46;96.03;99172.19;5134718;27;20506;-79
2022/03/04 01:12:23;;;;;;;18.33;10.03;;;;;;;-3.37;95.14;99176.94;5138960;27;20043;-79
2022/03/04 01:14:51;;;;;;;22.33;10.73;;;;;;;-3.42;95.56;99179.91;5133091;27;20047;-79
2022/03/04 01:17:18;;;;;;;20.37;9.73;;;;;;;-3.50;95.12;99171.53;5141010;27;20074;-79
2022/03/04 01:19:44;;;;;;;20.33;10.07;;;;;;;-3.43;96.82;99180.00;5137144;27;20284;-79
2022/03/04 01:22:11;;;;;;;19.40;9.27;;;;;;;-3.40;96.60;99185.97;5135016;27;20074;-80
2022/03/04 01:24:37;;;;;;;27.90;12.73;;;;;;;-3.53;97.21;99165.56;5131353;27;20039;-79
2022/03/04 01:27:04;;;;;;;22.17;10.70;;;;;;;-3.50;97.52;99166.22;5147065;27;20039;-79
2022/03/04 01:29:32;;;;;;;26.37;12.27;;;;;;;-3.45;97.32;99190.69;5133199;27;20066;-79
2022/03/04 01:31:59;;;;;;;23.80;10.00;;;;;;;-3.58;96.95;99158.72;5140374;27;20043;-79
2022/03/04 01:34:25;;;;;;;25.03;9.07;;;;;;;-3.59;96.31;99177.44;5141534;27;20054;-79
2022/03/04 01:36:52;;;;;;;24.03;10.53;;;;;;;-3.56;96.90;99172.75;5144977;27;20038;-79
2022/03/04 01:39:18;;;;;;;18.60;10.00;;;;;;;-3.51;96.81;99179.59;5135388;27;20042;-79
2022/03/04 01:41:45;;;;;;;15.63;9.37;;;;;;;-3.64;97.47;99161.78;5142635;27;20043;-79
2022/03/04 01:44:11;;;;;;;21.47;10.93;;;;;;;-3.39;96.52;99178.81;5138802;27;20059;-79
2022/03/04 01:46:39;;;;;;;21.30;10.37;;;;;;;-3.45;95.76;99171.25;5132807;27;20043;-79
2022/03/04 01:49:06;;;;;;;20.13;9.60;;;;;;;-3.40;95.92;99147.91;5136250;27;20054;-79
2022/03/04 01:51:32;;;;;;;21.70;9.43;;;;;;;-3.37;95.26;99174.28;5140878;27;20058;-79
2022/03/04 01:53:59;;;;;;;23.57;9.57;;;;;;;-3.34;94.39;99174.09;5139837;27;20051;-79
2022/03/04 01:56:25;;;;;;;18.60;9.00;;;;;;;-3.35;94.01;99153.78;5129642;27;20051;-79
2022/03/04 01:58:52;;;;;;;18.27;9.80;;;;;;;-3.42;92.86;99141.81;5131614;27;20049;-79
2022/03/04 02:01:18;;;;;;;22.80;10.40;;;;;;;-3.48;93.60;99147.50;5134457;27;20047;-79
2022/03/04 02:03:47;;;;;;;17.80;8.47;;;;;;;-3.50;92.95;99155.59;5129225;27;20055;-79
2022/03/04 02:06:14;;;;;;;22.53;9.03;;;;;;;-3.67;93.99;99138.03;5140401;27;20047;-79
2022/03/04 02:08:40;;;;;;;19.30;10.17;;;;;;;-3.61;93.58;99160.72;5142153;27;20050;-79
2022/03/04 02:11:07;;;;;;;19.40;9.37;;;;;;;-3.66;93.96;99147.69;5148083;27;20062;-79
2022/03/04 02:13:34;;;;;;;19.53;8.70;;;;;;;-3.58;94.96;99157.88;5141109;27;20054;-79
2022/03/04 02:16:01;;;;;;;19.83;8.43;;;;;;;-3.66;93.97;99155.69;5132217;27;20100;-79
2022/03/04 02:18:27;;;;;;;18.03;9.40;;;;;;;-3.57;95.12;99148.94;5140330;27;20058;-79
2022/03/04 02:21:02;;;;;;;19.93;9.87;;;;;;;-3.52;95.46;99156.63;5134556;27;20047;-79
2022/03/04 02:23:29;;;;;;;26.37;10.13;;;;;;;-3.71;94.64;99136.53;5133991;27;20051;-79
2022/03/04 02:25:56;;;;;;;30.30;10.43;;;;;;;-3.63;96.06;99157.28;5134243;27;20477;-78
2022/03/04 02:28:23;;;;;;;24.30;8.73;;;;;;;-3.70;95.74;99132.03;5132317;27;20050;-79
2022/03/04 02:30:49;;;;;;;19.93;10.10;;;;;;;-3.57;96.26;99154.25;5135753;27;20043;-79
2022/03/04 02:33:16;;;;;;;24.83;8.77;;;;;;;-3.61;96.54;99158.06;5135666;27;20047;-79
2022/03/04 02:35:43;;;;;;;22.17;9.00;;;;;;;-3.57;95.84;99149.81;5137871;27;20398;-78
2022/03/04 02:38:10;;;;;;;23.43;9.93;;;;;;;-3.54;95.31;99147.91;5143026;27;20051;-79
2022/03/04 02:40:38;;;;;;;21.33;9.33;;;;;;;-3.40;94.28;99140.78;5138122;27;20051;-79
2022/03/04 02:43:06;;;;;;;18.77;9.57;;;;;;;-3.44;93.78;99143.72;5132709;27;20533;-79
2022/03/04 02:45:33;;;;;;;19.07;8.97;;;;;;;-3.42;94.00;99155.09;5132294;27;20068;-79
2022/03/04 02:47:59;;;;;;;20.87;8.93;;;;;;;-3.58;93.02;99123.34;5145173;27;20046;-79
2022/03/04 02:50:26;;;;;;;19.73;9.27;;;;;;;-3.56;93.59;99146.19;5137905;27;20050;-79
2022/03/04 02:52:53;;;;;;;21.47;9.97;;;;;;;-3.59;94.74;99151.69;5135368;27;20054;-79
2022/03/04 02:55:19;;;;;;;24.87;9.57;;;;;;;-3.72;95.70;99147.25;5135261;27;20047;-78
2022/03/04 02:57:48;;;;;;;22.80;10.47;;;;;;;-3.77;95.96;99142.22;5141552;27;20059;-79
2022/03/04 03:00:17;;;;;;;24.00;9.80;;;;;;;-3.65;96.51;99161.88;5135463;27;20058;-79
2022/03/04 03:02:45;;;;;;;21.77;10.10;;;;;;;-3.57;95.90;99162.22;5134719;27;20047;-78
2022/03/04 03:05:12;;;;;;;21.07;9.47;;;;;;;-3.76;97.41;99143.94;5139306;27;20062;-79
2022/03/04 03:07:38;;;;;;;22.43;10.77;;;;;;;-3.92;98.28;99128.91;5140957;27;20048;-78
2022/03/04 03:10:06;;;;;;;23.93;11.03;;;;;;;-3.84;98.93;99147.06;5137526;27;20043;-78
2022/03/04 03:12:33;;;;;;;23.13;10.00;;;;;;;-3.93;99.25;99134.31;5148135;27;20129;-79
2022/03/04 03:15:01;;;;;;;23.87;10.23;;;;;;;-3.97;100.00;99138.97;5131186;27;20051;-79
2022/03/04 03:17:27;;;;;;;23.53;10.20;;;;;;;-3.99;100.00;99138.22;5129324;27;20055;-79
2022/03/04 03:19:54;;;;;;;21.87;10.13;;;;;;;-3.94;100.00;99144.09;5133685;27;20043;-78
2022/03/04 03:22:20;;;;;;;21.33;10.47;;;;;;;-3.89;100.00;99153.59;5137961;27;20053;-79
2022/03/04 03:24:47;;;;;;;22.87;11.30;;;;;;;-4.06;100.00;99147.50;5129397;27;20048;-79
2022/03/04 03:27:14;;;;;;;21.33;9.67;;;;;;;-3.92;100.00;99158.13;5144608;27;20379;-78
2022/03/04 03:29:40;;;;;;;24.10;10.30;;;;;;;-4.02;100.00;99138.41;5152911;27;20055;-78
2022/03/04 03:32:10;;;;;;;22.70;10.70;;;;;;;-4.05;100.00;99164.28;5141599;27;20051;-78
2022/03/04 03:34:37;;;;;;;24.73;10.48;;;;;;;-4.10;100.00;99167.22;5136657;27;20103;-79
2022/03/04 03:37:04;;;;;;;21.10;9.87;;;;;;;-4.23;100.00;99163.59;5142414;27;20039;-79
2022/03/04 03:39:31;;;;;;;26.13;9.93;;;;;;;-4.24;100.00;99164.56;5138926;27;20057;-79
2022/03/04 03:41:57;;;;;;;28.10;11.07;;;;;;;-4.32;100.00;99168.50;5141598;27;20043;-79
2022/03/04 03:44:24;;;;;;;23.80;10.47;;;;;;;-4.38;100.00;99170.66;5139208;27;20051;-79
2022/03/04 03:46:51;;;;;;;20.40;9.73;;;;;;;-4.36;100.00;99174.09;5131808;27;20043;-79
2022/03/04 03:49:18;;;;;;;22.73;10.53;;;;;;;-4.51;100.00;99150.16;5141402;27;20053;-78
2022/03/04 03:51:45;;;;;;;26.00;10.73;;;;;;;-4.32;100.00;99183.56;5135081;27;20054;-79
2022/03/04 03:54:12;;;;;;;22.03;9.87;;;;;;;-4.43;100.00;99168.28;5133168;27;20055;-79
2022/03/04 03:56:38;;;;;;;26.60;11.43;;;;;;;-4.45;100.00;99176.31;5137308;27;20043;-78
2022/03/04 03:59:05;;;;;;;28.17;10.47;;;;;;;-4.51;100.00;99184.66;5135374;27;20047;-78
2022/03/04 04:01:31;;;;;;;22.63;8.80;;;;;;;-4.51;100.00;99184.66;5133520;27;20483;-78
2022/03/04 04:03:59;;;;;;;27.67;11.83;;;;;;;-4.60;100.00;99174.56;5133411;27;20043;-78
2022/03/04 04:06:27;;;;;;;21.17;10.67;;;;;;;-4.68;100.00;99175.03;5136331;27;20039;-78
2022/03/04 04:08:53;;;;;;;23.37;10.67;;;;;;;-4.80;100.00;99178.38;5135964;27;20054;-78
2022/03/04 04:11:20;;;;;;;16.87;9.37;;;;;;;-4.78;100.00;99176.47;5138943;27;20039;-78
2022/03/04 04:13:46;;;;;;;22.40;10.60;;;;;;;-4.72;100.00;99175.28;5137577;27;20038;-78
2022/03/04 04:16:14;;;;;;;21.97;9.80;;;;;;;-4.74;100.00;99179.81;5149063;27;20046;-79
2022/03/04 04:18:41;;;;;;;20.77;9.50;;;;;;;-4.64;100.00;99195.13;5146883;27;20047;-78
2022/03/04 04:21:07;;;;;;;21.27;9.57;;;;;;;-4.69;100.00;99196.34;5139594;27;20073;-78
2022/03/04 04:23:35;;;;;;;20.77;9.90;;;;;;;-4.74;100.00;99188.63;5148629;27;20057;-78
2022/03/04 04:26:02;;;;;;;22.57;10.17;;;;;;;-4.84;100.00;99193.59;5131290;27;20051;-78
2022/03/04 04:28:28;;;;;;;21.03;9.60;;;;;;;-4.81;100.00;99190.75;5140033;27;20039;-78
2022/03/04 04:30:55;;;;;;;22.53;10.30;;;;;;;-4.92;100.00;99184.34;5147454;27;20043;-78
2022/03/04 04:33:21;;;;;;;21.50;9.60;;;;;;;-4.90;100.00;99183.34;5129820;27;20051;-78
2022/03/04 04:35:48;;;;;;;23.10;10.17;;;;;;;-4.98;100.00;99180.28;5126073;27;20060;-78
2022/03/04 04:38:14;;;;;;;19.17;9.13;;;;;;;-5.03;100.00;99191.16;5137079;27;20051;-78
2022/03/04 04:40:42;;;;;;;24.00;10.03;;;;;;;-4.96;100.00;99196.09;5132294;27;20042;-78
2022/03/04 04:43:09;;;;;;;19.17;9.23;;;;;;;-5.04;100.00;99185.94;5130790;27;20051;-78
2022/03/04 04:45:35;;;;;;;21.90;10.37;;;;;;;-5.03;100.00;99196.44;5144117;27;20039;-78
2022/03/04 04:48:02;;;;;;;17.07;8.57;;;;;;;-5.06;100.00;99191.31;5131382;27;20050;-78
2022/03/04 04:50:29;;;;;;;21.27;9.73;;;;;;;-5.19;100.00;99182.34;5139633;27;20066;-78
2022/03/04 04:52:55;;;;;;;19.47;9.10;;;;;;;-5.19;100.00;99192.94;5132253;27;20049;-78
2022/03/04 04:55:22;;;;;;;26.97;9.40;;;;;;;-5.24;100.00;99198.50;5131903;27;20051;-79
2022/03/04 04:57:50;;;;;;;20.90;8.97;;;;;;;-5.19;100.00;99211.50;5151665;27;20038;-78
2022/03/04 05:00:17;;;;;;;22.73;9.67;;;;;;;-5.19;100.00;99216.78;5140440;27;20312;-78
2022/03/04 05:02:45;;;;;;;23.90;10.23;;;;;;;-5.19;100.00;99217.63;5132491;27;20109;-78
2022/03/04 05:05:11;;;;;;;21.20;9.93;;;;;;;-5.22;100.00;99214.31;5137383;27;20043;-78
2022/03/04 05:07:38;;;;;;;27.73;9.80;;;;;;;-5.28;100.00;99198.72;5126475;27;20051;-79
2022/03/04 05:10:06;;;;;;;24.70;10.27;;;;;;;-5.16;100.00;99225.41;5135374;27;20047;-78
2022/03/04 05:12:33;;;;;;;20.87;9.80;;;;;;;-5.19;100.00;99214.13;5129462;27;20051;-78
2022/03/04 05:15:01;;;;;;;23.83;9.57;;;;;;;-5.22;100.00;99211.66;5133974;27;20075;-79
2022/03/04 05:17:27;;;;;;;19.90;10.27;;;;;;;-5.23;100.00;99216.09;5145775;27;20057;-79
2022/03/04 05:19:54;;;;;;;23.93;9.13;;;;;;;-5.32;100.00;99219.25;5139292;27;20045;-79
2022/03/04 05:22:20;;;;;;;22.93;10.00;;;;;;;-5.43;100.00;99221.63;5131777;27;20051;-78
2022/03/04 05:24:47;;;;;;;18.37;8.33;;;;;;;-5.40;100.00;99234.72;5137034;27;20038;-78
2022/03/04 05:27:13;;;;;;;21.63;9.00;;;;;;;-5.58;100.00;99210.91;5142699;27;20043;-79
2022/03/04 05:29:40;;;;;;;20.43;9.53;;;;;;;-5.51;100.00;99233.47;5130851;27;20047;-79
2022/03/04 05:32:08;;;;;;;18.70;8.77;;;;;;;-5.54;100.00;99233.66;5141700;27;20057;-78
2022/03/04 05:34:36;;;;;;;22.40;8.67;;;;;;;-5.63;100.00;99215.59;5139272;27;20043;-78
2022/03/04 05:37:03;;;;;;;21.97;9.00;;;;;;;-5.60;100.00;99238.41;5143043;27;20039;-79
2022/03/04 05:39:30;;;;;;;20.03;9.57;;;;;;;-5.53;100.00;99231.84;5137849;27;20055;-78
2022/03/04 05:41:56;;;;;;;21.67;8.67;;;;;;;-5.65;100.00;99221.91;5138426;27;20494;-78
2022/03/04 05:44:23;;;;;;;20.63;9.30;;;;;;;-5.55;100.00;99228.44;5133898;27;20504;-79
2022/03/04 05:46:49;;;;;;;17.80;9.30;;;;;;;-5.67;100.00;99237.88;5147100;27;20038;-79
2022/03/04 05:49:17;;;;;;;23.10;9.67;;;;;;;-5.63;100.00;99241.22;5144103;27;20055;-78
2022/03/04 05:51:44;;;;;;;25.93;9.90;;;;;;;-5.61;100.00;99253.44;5136662;27;20078;-79
2022/03/04 05:54:10;;;;;;;24.73;9.63;;;;;;;-5.64;100.00;99247.47;5137804;27;20054;-78
2022/03/04 05:56:37;;;;;;;20.77;8.87;;;;;;;-5.71;100.00;99242.47;5134734;27;20061;-78
2022/03/04 05:59:03;;;;;;;20.70;9.13;;;;;;;-5.66;100.00;99252.84;5133369;27;20046;-79
2022/03/04 06:01:30;;;;;;;21.43;9.43;;;;;;;-5.74;100.00;99229.38;5137299;27;20047;-78
2022/03/04 06:03:56;;;;;;;26.00;10.40;;;;;;;-5.66;100.00;99258.16;5133395;27;20054;-78
2022/03/04 06:06:25;;;;;;;19.17;10.07;;;;;;;-5.73;100.00;99248.81;5141333;27;20043;-78
2022/03/04 06:08:51;;;;;;;21.30;10.10;;;;;;;-5.74;100.00;99249.72;5141951;27;20047;-78
2022/03/04 06:11:18;;;;;;;21.77;9.60;;;;;;;-5.74;100.00;99249.72;5137595;27;20051;-79
2022/03/04 06:13:45;;;;;;;22.13;10.57;;;;;;;-5.71;100.00;99252.22;5138580;27;20117;-78
2022/03/04 06:16:12;;;;;;;28.00;9.83;;;;;;;-5.76;100.00;99239.22;5138407;27;20126;-79
2022/03/04 06:18:39;;;;;;;24.10;9.37;;;;;;;-5.70;100.00;99248.63;5130546;27;20403;-79
2022/03/04 06:21:05;;;;;;;26.77;11.40;;;;;;;-5.65;100.00;99262.47;5138742;27;20054;-79
2022/03/04 06:23:33;;;;;;;21.57;9.73;;;;;;;-5.71;100.00;99255.72;5129161;27;20058;-78
2022/03/04 06:26:00;;;;;;;26.60;9.23;;;;;;;-5.70;100.00;99251.28;5143770;27;20066;-78
2022/03/04 06:28:27;;;;;;;20.30;9.27;;;;;;;-5.68;100.00;99255.53;5133910;27;20043;-79
2022/03/04 06:30:54;;;;;;;23.73;10.67;;;;;;;-5.66;100.00;99271.38;5138149;27;20070;-78
2022/03/04 06:36:05;;;;;;;21.27;9.17;;;;;;;-5.51;100.00;99273.22;5128764;27;20104;-78
2022/03/04 06:38:34;;;;;;;21.40;9.10;;;;;;;-5.49;100.00;99261.66;5139132;27;20493;-77
2022/03/04 06:41:01;;;;;;;23.95;11.15;;;;;;;-5.31;100.00;99271.31;5136207;27;20081;-78
2022/03/04 06:43:28;;;;;;;23.47;10.17;;;;;;;-5.25;100.00;99280.75;5133083;27;20494;-80
2022/03/04 06:45:55;;;;;;;23.47;9.63;;;;;;;-5.39;100.00;99271.72;5139531;27;20051;-79
2022/03/04 06:48:22;;;;;;;22.20;9.97;;;;;;;-5.34;100.00;99288.22;5128670;27;20494;-80
2022/03/04 06:50:49;;;;;;;28.60;10.07;;;;;;;-5.19;100.00;99293.66;5138378;27;20050;-79
2022/03/04 06:53:17;;;;;;;20.87;10.27;;;;;;;-5.17;100.00;99283.81;5136637;27;20178;-80
2022/03/04 06:55:45;;;;;;;21.20;9.43;;;;;;;-4.96;100.00;99304.81;5124430;27;20043;-77
2022/03/04 06:58:12;;;;;;;25.77;10.73;;;;;;;-4.83;100.00;99301.41;5138352;27;20541;-77
2022/03/04 07:00:40;;;;;;;30.17;9.63;;;;;;;-4.71;100.00;99304.31;5134527;27;20051;-79
2022/03/04 07:03:10;;;;;;;22.97;10.70;;;;;;;-4.48;100.00;99300.38;5150445;27;20089;-79
2022/03/04 07:05:40;;;;;;;26.15;11.13;;;;;;;-4.34;100.00;99319.03;5145814;27;20050;-79
2022/03/04 07:08:11;;;;;;;24.17;11.80;;;;;;;-4.37;100.00;99307.75;5129260;27;20051;-79
2022/03/04 07:10:38;;;;;;;27.27;11.73;;;;;;;-4.38;100.00;99296.28;5132795;27;20071;-79
2022/03/04 07:13:06;;;;;;;46.60;17.77;;;;;;;-4.16;100.00;99314.47;5143535;27;20107;-79
2022/03/04 07:15:36;;;;;;;31.40;13.00;;;;;;;-4.09;100.00;99333.56;5139060;27;20045;-80
2022/03/04 07:18:03;;;;;;;33.92;12.70;;;;;;;-4.15;100.00;99304.72;5136982;27;20034;-79
2022/03/04 07:20:29;;;;;;;38.27;13.70;;;;;;;-3.96;100.00;99329.28;5134720;27;20046;-79
2022/03/04 07:22:59;;;;;;;39.40;15.07;;;;;;;-4.00;100.00;99316.25;5140125;27;20054;-80
2022/03/04 07:25:26;;;;;;;41.90;16.45;;;;;;;-3.86;100.00;99318.09;5128808;27;20050;-80
2022/03/04 07:27:52;;;;;;;31.80;13.63;;;;;;;-3.84;100.00;99306.47;5139757;27;20058;-77
2022/03/04 07:30:20;;;;;;;35.80;14.07;;;;;;;-3.67;100.00;99315.19;5134702;27;20054;-77
2022/03/04 07:32:49;;;;;;;26.60;12.60;;;;;;;-3.56;100.00;99308.31;5148300;27;20395;-77
2022/03/04 07:35:15;;;;;;;45.97;14.53;;;;;;;-3.35;100.00;99331.91;5142558;27;20418;-78
2022/03/04 07:37:43;;;;;;;43.67;14.63;;;;;;;-3.28;100.00;99309.31;5135063;27;20066;-80
2022/03/04 07:40:12;;;;;;;33.67;14.17;;;;;;;-3.08;100.00;99313.41;5136253;27;20057;-80
2022/03/04 07:42:39;;;;;;;42.35;15.00;;;;;;;-3.02;100.00;99305.03;5136439;27;20054;-80
2022/03/04 07:45:08;;;;;;;35.60;15.53;;;;;;;-2.91;100.00;99306.16;5132375;27;20487;-79
2022/03/04 07:47:36;;;;;;;36.78;15.23;;;;;;;-2.77;100.00;99292.00;5129532;27;20047;-79
2022/03/04 07:50:03;;;;;;;29.60;15.63;;;;;;;-2.48;100.00;99319.44;5140536;27;20054;-79
2022/03/04 07:52:31;;;;;;;30.77;13.03;;;;;;;-2.42;100.00;99312.88;5144899;27;20047;-79
2022/03/04 07:54:59;;;;;;;31.53;11.87;;;;;;;-2.35;100.00;99314.16;5134404;27;20078;-79
2022/03/04 07:57:25;;;;;;;28.47;12.47;;;;;;;-2.20;99.70;99312.31;5134284;27;20043;-79
2022/03/04 07:59:52;;;;;;;37.67;13.17;;;;;;;-2.17;98.87;99296.13;5135178;27;20417;-79
2022/03/04 08:02:18;;;;;;;33.17;15.43;;;;;;;-1.99;98.00;99305.59;5151544;27;20049;-79
2022/03/04 08:04:46;;;;;;;27.67;11.43;;;;;;;-1.89;97.97;99313.81;5143289;27;20053;-80
2022/03/04 08:07:13;;;;;;;27.23;13.90;;;;;;;-1.80;96.81;99305.19;5136931;27;20051;-79
2022/03/04 08:09:39;;;;;;;35.30;14.77;;;;;;;-1.59;95.63;99327.84;5131496;27;20047;-79
2022/03/04 08:12:07;;;;;;;37.33;13.20;;;;;;;-1.63;93.56;99313.88;5140162;27;20053;-77
2022/03/04 08:14:34;;;;;;;32.23;14.00;;;;;;;-1.40;93.66;99327.44;5131035;27;20042;-77
2022/03/04 08:17:00;;;;;;;35.03;14.27;;;;;;;-1.29;92.35;99328.41;5138566;27;20069;-78
2022/03/04 08:19:27;;;;;;;31.73;13.60;;;;;;;-1.32;92.68;99301.13;5140423;27;20312;-78
2022/03/04 08:21:55;;;;;;;27.93;14.10;;;;;;;-1.00;94.52;99338.03;5131246;27;20046;-78
2022/03/04 08:24:21;;;;;;;34.13;16.67;;;;;;;-0.90;91.53;99328.44;5130727;27;20050;-80
2022/03/04 08:26:48;;;;;;;40.10;14.50;;;;;;;-0.77;90.52;99334.63;5135872;27;20572;-79
2022/03/04 08:29:15;;;;;;;33.53;15.80;;;;;;;-0.80;89.13;99304.59;5145734;27;20062;-79
2022/03/04 08:31:41;;;;;;;33.23;14.87;;;;;;;-0.56;87.18;99331.34;5133859;27;20075;-80
2022/03/04 08:34:08;;;;;;;35.10;15.23;;;;;;;-0.59;87.43;99323.56;5139026;27;20043;-80
2022/03/04 08:36:35;;;;;;;49.60;15.77;;;;;;;-0.38;88.58;99330.06;5130189;27;20498;-80
2022/03/04 08:39:05;;;;;;;27.23;12.23;;;;;;;-0.10;84.59;99335.19;5136052;27;20047;-79
2022/03/04 08:41:32;;;;;;;29.17;13.83;;;;;;;-0.08;83.01;99335.94;5133429;27;20039;-80
2022/03/04 08:43:59;;;;;;;27.93;13.90;;;;;;;0.08;82.52;99327.63;5142686;27;20066;-80
2022/03/04 08:46:26;;;;;;;31.60;14.77;;;;;;;0.48;77.87;99316.59;5134106;27;20472;-80
2022/03/04 08:48:52;;;;;;;32.90;14.82;;;;;;;0.64;77.27;99317.13;5133421;27;20482;-79
2022/03/04 08:51:24;;;;;;;29.50;12.37;;;;;;;0.81;75.49;99315.84;5128908;27;20055;-80
2022/03/04 08:53:51;;;;;;;29.00;13.52;;;;;;;1.09;72.35;99331.59;5118949;27;20047;-79
2022/03/04 08:56:19;;;;;;;32.45;14.32;;;;;;;1.26;71.68;99331.09;5139211;27;20051;-79
2022/03/04 08:58:46;;;;;;;28.05;14.98;;;;;;;1.28;73.13;99328.28;5140385;27;20049;-79
2022/03/04 09:01:12;;;;;;;32.70;15.23;;;;;;;1.55;71.73;99330.59;5136189;27;20053;-79
2022/03/04 09:03:39;;;;;;;35.60;14.35;;;;;;;1.47;69.71;99314.28;5125934;27;20070;-79
2022/03/04 09:06:05;;;;;;;27.23;13.57;;;;;;;1.69;68.84;99308.91;5136048;27;20043;-79
2022/03/04 09:08:32;;;;;;;26.85;12.98;;;;;;;1.87;68.20;99324.47;5135011;27;20043;-79
2022/03/04 09:10:58;;;;;;;36.22;13.65;;;;;;;1.96;67.01;99326.38;5132358;27;20047;-79
2022/03/04 09:13:26;;;;;;;34.00;14.60;;;;;;;1.99;67.11;99303.81;5135245;27;20050;-79
2022/03/04 09:15:53;;;;;;;33.08;13.73;;;;;;;2.10;66.86;99299.25;5138331;27;20046;-79
2022/03/04 09:18:19;;;;;;;28.33;14.88;;;;;;;2.16;66.44;99294.38;5133321;27;20047;-78
2022/03/04 09:20:46;;;;;;;27.92;12.75;;;;;;;2.34;63.71;99314.31;5136765;27;20043;-79
2022/03/04 09:23:12;;;;;;;30.05;13.15;;;;;;;2.32;62.60;99297.50;5138583;27;20047;-78
2022/03/04 09:25:39;;;;;;;28.85;13.18;;;;;;;2.37;62.91;99295.25;5127710;27;20048;-79
2022/03/04 09:28:06;;;;;;;31.88;12.90;;;;;;;2.58;60.65;99306.00;5133171;27;20062;-79
2022/03/04 09:30:36;;;;;;;31.15;13.57;;;;;;;2.67;63.05;99311.59;5143277;27;20424;-79
2022/03/04 09:33:02;;;;;;;33.80;14.57;;;;;;;2.70;60.04;99293.38;5133804;27;20074;-79
2022/03/04 09:35:29;;;;;;;35.58;13.05;;;;;;;2.82;57.84;99319.16;5123401;27;20047;-79
2022/03/04 09:37:55;;;;;;;31.13;13.10;;;;;;;2.94;58.49;99314.59;5136175;27;20039;-78
2022/03/04 09:40:22;;;;;;;28.48;14.25;;;;;;;2.98;59.03;99310.66;5135578;27;20050;-78
2022/03/04 09:42:49;;;;;;;30.40;14.45;;;;;;;3.02;58.49;99305.84;5151901;27;20098;-78
2022/03/04 09:45:16;;;;;;;26.85;12.23;;;;;;;3.15;56.74;99300.28;5137815;27;20058;-79
2022/03/04 09:47:46;;;;;;;29.77;13.25;;;;;;;3.34;55.33;99321.00;5139357;27;20055;-78
2022/03/04 09:50:16;;;;;;;30.95;14.07;;;;;;;3.29;54.04;99294.53;5134769;27;20430;-79
2022/03/04 09:52:43;;;;;;;27.83;13.20;;;;;;;3.31;54.70;99307.81;5135162;27;20076;-79
2022/03/04 09:55:10;;;;;;;27.67;11.90;;;;;;;3.42;55.12;99310.44;5129185;27;20490;-79
2022/03/04 09:57:37;;;;;;;27.83;13.90;;;;;;;3.49;52.89;99308.03;5126903;27;20051;-79
2022/03/04 10:00:05;;;;;;;28.13;12.90;;;;;;;3.48;53.01;99309.88;5131457;27;20502;-79
2022/03/04 10:02:34;;;;;;;28.52;11.85;;;;;;;3.69;53.76;99319.72;5133602;27;20055;-79
2022/03/04 10:05:03;;;;;;;22.83;11.60;;;;;;;3.64;52.87;99306.66;5138436;27;20507;-79
2022/03/04 10:07:39;;;;;;;31.15;12.98;;;;;;;3.67;51.99;99302.88;5133125;27;20051;-79
2022/03/04 10:10:10;;;;;;;28.98;14.02;;;;;;;3.73;52.12;99307.69;5128521;27;20077;-79
2022/03/04 10:12:47;;;;;;;25.92;12.32;;;;;;;3.82;53.24;99304.16;5142217;27;20054;-79
2022/03/04 10:15:14;;;;;;;31.35;13.27;;;;;;;3.78;49.53;99278.56;5124969;27;20051;-79
2022/03/04 10:17:41;;;;;;;26.73;12.32;;;;;;;3.99;50.13;99312.56;5132997;27;20053;-79
2022/03/04 10:20:12;;;;;;;21.75;12.32;;;;;;;3.96;50.05;99308.31;5144409;27;20057;-79
2022/03/04 10:22:42;;;;;;;27.88;12.95;;;;;;;4.03;50.49;99311.28;5148834;27;20038;-79
2022/03/04 10:25:16;;;;;;;;;;;;;;;4.28;49.60;99312.59;5137316;27;20126;-79
2022/03/04 10:27:43;;;;;;;33.67;13.65;;;;;;;4.17;48.92;99310.91;5146720;27;19926;-79
2022/03/04 10:30:10;;;;;;;28.48;12.20;;;;;;;4.18;48.57;99301.81;5145149;27;20047;-79
2022/03/04 10:32:36;;;;;;;27.08;11.93;;;;;;;4.22;49.76;99308.63;5130564;27;20047;-79
2022/03/04 10:35:05;;;;;;;26.40;12.88;;;;;;;4.27;49.25;99291.22;5150122;27;20042;-79
2022/03/04 10:37:46;;;;;;;22.88;12.00;;;;;;;4.46;47.71;99288.50;5139682;27;20042;-79
2022/03/04 10:40:15;;;;;;;21.05;11.40;;;;;;;4.40;48.28;99281.84;5142653;27;20129;-79
2022/03/04 10:42:48;;;;;;;24.58;11.50;;;;;;;4.33;48.89;99290.63;5147472;27;20040;-79
2022/03/04 10:45:17;;;;;;;29.55;12.27;;;;;;;4.45;49.03;99288.66;5141442;27;20074;-79
2022/03/04 10:47:50;;;;;;;30.48;13.18;;;;;;;4.50;49.57;99273.78;5134771;27;20494;-79
2022/03/04 10:50:19;;;;;;;23.33;11.23;;;;;;;4.65;49.93;99282.22;5142984;27;20043;-79
2022/03/04 10:52:57;;;;;;;26.00;12.32;;;;;;;4.81;47.67;99286.19;5139389;27;20047;-79
2022/03/04 10:55:45;;;;;;;24.88;10.98;;;;;;;4.84;48.07;99289.44;5141224;27;20047;-79
2022/03/04 10:58:15;;;;;;;22.55;12.70;;;;;;;4.79;48.23;99278.28;5135332;27;20077;-79
2022/03/04 11:00:44;;;;;;;40.45;13.52;;;;;;;4.88;47.75;99276.56;5130724;27;20137;-79
2022/03/04 11:03:16;;;;;;;27.02;11.63;;;;;;;5.02;46.97;99286.84;5133513;27;20051;-79
2022/03/04 11:05:42;;;;;;;29.17;14.45;;;;;;;5.01;47.31;99278.91;5132603;27;20047;-79
2022/03/04 11:08:12;;;;;;;28.30;13.40;;;;;;;5.17;48.00;99295.31;5133732;27;20054;-80
2022/03/04 11:10:38;;;;;;;30.63;12.68;;;;;;;5.16;47.01;99293.59;5132784;27;20043;-79
2022/03/04 11:13:07;;;;;;;25.05;12.65;;;;;;;5.06;47.70;99266.69;5131225;27;20039;-79
2022/03/04 11:15:35;;;;;;;27.83;13.15;;;;;;;5.03;47.23;99263.44;5149505;27;20051;-79
2022/03/04 11:18:04;;;;;;;29.77;13.00;;;;;;;5.14;45.77;99271.34;5141063;27;20143;-79
2022/03/04 11:20:31;;;;;;;21.92;11.85;;;;;;;5.18;46.91;99272.75;5128762;27;20050;-80
2022/03/04 11:22:58;;;;;;;26.10;12.13;;;;;;;5.32;45.12;99258.78;5146088;27;20131;-79